sensor_id;sensor_type;location;lat;lon;timestamp;temperature;humidity
65036;DHT22;51603;49.300;8.880;2023-05-21T00:00:18;15.90;99.90
65036;DHT22;51603;49.300;8.880;2023-05-21T00:02:45;15.90;99.90
65036;DHT22;51603;49.300;8.880;2023-05-21T00:05:10;15.90;99.90
65036;DHT22;51603;49.300;8.880;2023-05-21T00:07:37;15.90;99.90
65036;DHT22;51603;49.300;8.880;2023-05-21T00:10:03;15.90;99.90
65036;DHT22;51603;49.300;8.880;2023-05-21T00:12:29;15.90;99.90
65036;DHT22;51603;49.300;8.880;2023-05-21T00:14:56;15.90;99.90
65036;DHT22;51603;49.300;8.880;2023-05-21T00:17:22;15.90;99.90
65036;DHT22;51603;49.300;8.880;2023-05-21T00:19:47;15.90;99.90
65036;DHT22;51603;49.300;8.880;2023-05-21T00:22:14;15.90;99.90
65036;DHT22;51603;49.300;8.880;2023-05-21T00:24:40;15.80;99.90
65036;DHT22;51603;49.300;8.880;2023-05-21T00:27:06;15.80;99.90
65036;DHT22;51603;49.300;8.880;2023-05-21T00:29:31;15.70;99.90
65036;DHT22;51603;49.300;8.880;2023-05-21T00:31:57;15.80;99.90
65036;DHT22;51603;49.300;8.880;2023-05-21T00:34:22;15.70;99.90
65036;DHT22;51603;49.300;8.880;2023-05-21T00:36:48;15.70;99.90
65036;DHT22;51603;49.300;8.880;2023-05-21T00:39:13;15.70;99.90
65036;DHT22;51603;49.300;8.880;2023-05-21T00:41:40;15.70;99.90
65036;DHT22;51603;49.300;8.880;2023-05-21T00:44:07;15.60;99.90
65036;DHT22;51603;49.300;8.880;2023-05-21T00:46:33;15.60;99.90
65036;DHT22;51603;49.300;8.880;2023-05-21T00:48:59;15.60;99.90
65036;DHT22;51603;49.300;8.880;2023-05-21T00:51:25;15.60;99.90
65036;DHT22;51603;49.300;8.880;2023-05-21T00:53:55;15.50;99.90
65036;DHT22;51603;49.300;8.880;2023-05-21T00:56:22;15.50;99.90
65036;DHT22;51603;49.300;8.880;2023-05-21T00:58:52;15.50;99.90
65036;DHT22;51603;49.300;8.880;2023-05-21T01:01:18;15.50;99.90
65036;DHT22;51603;49.300;8.880;2023-05-21T01:03:44;15.40;99.90
65036;DHT22;51603;49.300;8.880;2023-05-21T01:06:10;15.40;99.90
65036;DHT22;51603;49.300;8.880;2023-05-21T01:08:38;15.40;99.90
65036;DHT22;51603;49.300;8.880;2023-05-21T01:11:07;15.30;99.90
65036;DHT22;51603;49.300;8.880;2023-05-21T01:13:36;15.30;99.90
65036;DHT22;51603;49.300;8.880;2023-05-21T01:16:03;15.30;99.90
65036;DHT22;51603;49.300;8.880;2023-05-21T01:18:31;15.30;99.90
65036;DHT22;51603;49.300;8.880;2023-05-21T01:21:02;15.30;99.90
65036;DHT22;51603;49.300;8.880;2023-05-21T01:23:28;15.30;99.90
65036;DHT22;51603;49.300;8.880;2023-05-21T01:25:54;15.30;99.90
65036;DHT22;51603;49.300;8.880;2023-05-21T01:28:20;15.30;99.90
65036;DHT22;51603;49.300;8.880;2023-05-21T01:30:46;15.20;99.90
65036;DHT22;51603;49.300;8.880;2023-05-21T01:33:37;15.20;99.90
65036;DHT22;51603;49.300;8.880;2023-05-21T01:36:17;15.20;99.90
65036;DHT22;51603;49.300;8.880;2023-05-21T01:38:56;15.20;99.90
65036;DHT22;51603;49.300;8.880;2023-05-21T01:41:23;15.20;99.90
65036;DHT22;51603;49.300;8.880;2023-05-21T01:43:51;15.10;99.90
65036;DHT22;51603;49.300;8.880;2023-05-21T01:46:22;15.10;99.90
65036;DHT22;51603;49.300;8.880;2023-05-21T01:48:50;15.10;99.90
65036;DHT22;51603;49.300;8.880;2023-05-21T01:51:17;15.10;99.90
65036;DHT22;51603;49.300;8.880;2023-05-21T01:53:43;15.10;99.90
65036;DHT22;51603;49.300;8.880;2023-05-21T01:56:09;15.10;99.90
65036;DHT22;51603;49.300;8.880;2023-05-21T01:58:35;15.00;99.90
65036;DHT22;51603;49.300;8.880;2023-05-21T02:01:01;15.00;99.90
65036;DHT22;51603;49.300;8.880;2023-05-21T02:03:28;15.00;99.90
65036;DHT22;51603;49.300;8.880;2023-05-21T02:05:55;15.00;99.90
65036;DHT22;51603;49.300;8.880;2023-05-21T02:08:20;15.00;99.90
65036;DHT22;51603;49.300;8.880;2023-05-21T02:10:48;14.90;99.90
65036;DHT22;51603;49.300;8.880;2023-05-21T02:13:13;14.90;99.90
65036;DHT22;51603;49.300;8.880;2023-05-21T02:15:40;14.90;99.90
65036;DHT22;51603;49.300;8.880;2023-05-21T02:18:06;14.90;99.90
65036;DHT22;51603;49.300;8.880;2023-05-21T02:20:32;14.80;99.90
65036;DHT22;51603;49.300;8.880;2023-05-21T02:22:58;14.80;99.90
65036;DHT22;51603;49.300;8.880;2023-05-21T02:25:23;14.80;99.90
65036;DHT22;51603;49.300;8.880;2023-05-21T02:27:49;14.80;99.90
65036;DHT22;51603;49.300;8.880;2023-05-21T02:30:18;14.80;99.90
65036;DHT22;51603;49.300;8.880;2023-05-21T02:32:44;14.80;99.90
65036;DHT22;51603;49.300;8.880;2023-05-21T02:35:11;14.80;99.90
65036;DHT22;51603;49.300;8.880;2023-05-21T02:37:38;14.80;99.90
65036;DHT22;51603;49.300;8.880;2023-05-21T02:40:08;14.80;99.90
65036;DHT22;51603;49.300;8.880;2023-05-21T02:42:35;14.80;99.90
65036;DHT22;51603;49.300;8.880;2023-05-21T02:45:04;14.80;99.90
65036;DHT22;51603;49.300;8.880;2023-05-21T02:47:30;14.80;99.90
65036;DHT22;51603;49.300;8.880;2023-05-21T02:49:58;14.80;99.90
65036;DHT22;51603;49.300;8.880;2023-05-21T02:52:24;14.80;99.90
65036;DHT22;51603;49.300;8.880;2023-05-21T02:54:50;14.80;99.90
65036;DHT22;51603;49.300;8.880;2023-05-21T02:57:16;14.80;99.90
65036;DHT22;51603;49.300;8.880;2023-05-21T02:59:43;14.80;99.90
65036;DHT22;51603;49.300;8.880;2023-05-21T03:02:08;14.80;99.90
65036;DHT22;51603;49.300;8.880;2023-05-21T03:04:34;14.80;99.90
65036;DHT22;51603;49.300;8.880;2023-05-21T03:07:04;14.80;99.90
65036;DHT22;51603;49.300;8.880;2023-05-21T03:09:29;14.80;99.90
65036;DHT22;51603;49.300;8.880;2023-05-21T03:11:55;14.80;99.90
65036;DHT22;51603;49.300;8.880;2023-05-21T03:14:20;14.80;99.90
65036;DHT22;51603;49.300;8.880;2023-05-21T03:16:47;14.80;99.90
65036;DHT22;51603;49.300;8.880;2023-05-21T03:19:13;14.80;99.90
65036;DHT22;51603;49.300;8.880;2023-05-21T03:21:39;14.80;99.90
65036;DHT22;51603;49.300;8.880;2023-05-21T03:24:05;14.70;99.90
65036;DHT22;51603;49.300;8.880;2023-05-21T03:26:31;14.70;99.90
65036;DHT22;51603;49.300;8.880;2023-05-21T03:28:56;14.70;99.90
65036;DHT22;51603;49.300;8.880;2023-05-21T03:31:23;14.70;99.90
65036;DHT22;51603;49.300;8.880;2023-05-21T03:33:49;14.70;99.90
65036;DHT22;51603;49.300;8.880;2023-05-21T03:36:15;14.70;99.90
65036;DHT22;51603;49.300;8.880;2023-05-21T03:38:41;14.70;99.90
65036;DHT22;51603;49.300;8.880;2023-05-21T03:41:07;14.70;99.90
65036;DHT22;51603;49.300;8.880;2023-05-21T03:43:33;14.70;99.90
65036;DHT22;51603;49.300;8.880;2023-05-21T03:45:58;14.80;99.90
65036;DHT22;51603;49.300;8.880;2023-05-21T03:48:24;14.80;99.90
65036;DHT22;51603;49.300;8.880;2023-05-21T03:50:49;14.80;99.90
65036;DHT22;51603;49.300;8.880;2023-05-21T03:53:15;14.80;99.90
65036;DHT22;51603;49.300;8.880;2023-05-21T03:55:41;14.80;99.90
65036;DHT22;51603;49.300;8.880;2023-05-21T03:58:07;14.80;99.90
65036;DHT22;51603;49.300;8.880;2023-05-21T04:00:33;14.80;99.90
65036;DHT22;51603;49.300;8.880;2023-05-21T04:03:04;14.90;99.90
65036;DHT22;51603;49.300;8.880;2023-05-21T04:05:31;14.90;99.90
65036;DHT22;51603;49.300;8.880;2023-05-21T04:07:57;14.90;99.90
65036;DHT22;51603;49.300;8.880;2023-05-21T04:10:23;14.90;99.90
65036;DHT22;51603;49.300;8.880;2023-05-21T04:12:48;15.00;99.90
65036;DHT22;51603;49.300;8.880;2023-05-21T04:15:17;15.00;99.90
65036;DHT22;51603;49.300;8.880;2023-05-21T04:17:43;15.00;99.90
65036;DHT22;51603;49.300;8.880;2023-05-21T04:20:10;15.00;99.90
65036;DHT22;51603;49.300;8.880;2023-05-21T04:22:36;15.10;99.90
65036;DHT22;51603;49.300;8.880;2023-05-21T04:25:02;15.10;99.90
65036;DHT22;51603;49.300;8.880;2023-05-21T04:27:27;15.10;99.90
65036;DHT22;51603;49.300;8.880;2023-05-21T04:29:53;15.10;99.90
65036;DHT22;51603;49.300;8.880;2023-05-21T04:32:19;15.10;99.90
65036;DHT22;51603;49.300;8.880;2023-05-21T04:34:45;15.30;99.90
65036;DHT22;51603;49.300;8.880;2023-05-21T04:37:10;15.20;99.90
65036;DHT22;51603;49.300;8.880;2023-05-21T04:39:36;15.30;99.90
65036;DHT22;51603;49.300;8.880;2023-05-21T04:42:02;15.30;99.90
65036;DHT22;51603;49.300;8.880;2023-05-21T04:44:28;15.40;99.90
65036;DHT22;51603;49.300;8.880;2023-05-21T04:46:54;15.40;99.90
65036;DHT22;51603;49.300;8.880;2023-05-21T04:49:21;15.40;99.90
65036;DHT22;51603;49.300;8.880;2023-05-21T04:51:47;15.40;99.90
65036;DHT22;51603;49.300;8.880;2023-05-21T04:54:13;15.50;99.90
65036;DHT22;51603;49.300;8.880;2023-05-21T04:56:39;15.50;99.90
65036;DHT22;51603;49.300;8.880;2023-05-21T04:59:05;15.50;99.90
65036;DHT22;51603;49.300;8.880;2023-05-21T05:01:32;15.50;99.90
65036;DHT22;51603;49.300;8.880;2023-05-21T05:03:59;15.50;99.90
65036;DHT22;51603;49.300;8.880;2023-05-21T05:06:25;15.60;99.90
65036;DHT22;51603;49.300;8.880;2023-05-21T05:08:51;15.60;99.90
65036;DHT22;51603;49.300;8.880;2023-05-21T05:11:16;15.60;99.90
65036;DHT22;51603;49.300;8.880;2023-05-21T05:13:42;15.70;99.90
65036;DHT22;51603;49.300;8.880;2023-05-21T05:16:08;15.70;99.90
65036;DHT22;51603;49.300;8.880;2023-05-21T05:18:34;15.70;99.90
65036;DHT22;51603;49.300;8.880;2023-05-21T05:21:00;15.70;99.90
65036;DHT22;51603;49.300;8.880;2023-05-21T05:23:26;15.70;99.90
65036;DHT22;51603;49.300;8.880;2023-05-21T05:25:52;15.70;99.90
65036;DHT22;51603;49.300;8.880;2023-05-21T05:28:17;15.70;99.90
65036;DHT22;51603;49.300;8.880;2023-05-21T05:30:43;15.80;99.90
65036;DHT22;51603;49.300;8.880;2023-05-21T05:33:08;15.80;99.90
65036;DHT22;51603;49.300;8.880;2023-05-21T05:35:34;15.80;99.90
65036;DHT22;51603;49.300;8.880;2023-05-21T05:38:00;15.80;99.90
65036;DHT22;51603;49.300;8.880;2023-05-21T05:40:26;15.80;99.90
65036;DHT22;51603;49.300;8.880;2023-05-21T05:42:51;15.80;99.90
65036;DHT22;51603;49.300;8.880;2023-05-21T05:45:18;15.90;99.90
65036;DHT22;51603;49.300;8.880;2023-05-21T05:47:44;15.90;99.90
65036;DHT22;51603;49.300;8.880;2023-05-21T05:50:09;15.90;99.90
65036;DHT22;51603;49.300;8.880;2023-05-21T05:52:35;15.90;99.90
65036;DHT22;51603;49.300;8.880;2023-05-21T05:55:01;15.90;99.90
65036;DHT22;51603;49.300;8.880;2023-05-21T05:57:26;15.90;99.90
65036;DHT22;51603;49.300;8.880;2023-05-21T05:59:52;16.00;99.90
65036;DHT22;51603;49.300;8.880;2023-05-21T06:02:17;16.00;99.90
65036;DHT22;51603;49.300;8.880;2023-05-21T06:04:43;16.00;99.90
65036;DHT22;51603;49.300;8.880;2023-05-21T06:07:09;16.10;99.90
65036;DHT22;51603;49.300;8.880;2023-05-21T06:09:34;16.10;99.90
65036;DHT22;51603;49.300;8.880;2023-05-21T06:12:00;16.20;99.90
65036;DHT22;51603;49.300;8.880;2023-05-21T06:14:26;16.20;99.90
65036;DHT22;51603;49.300;8.880;2023-05-21T06:16:51;16.20;99.90
65036;DHT22;51603;49.300;8.880;2023-05-21T06:19:17;16.30;99.90
65036;DHT22;51603;49.300;8.880;2023-05-21T06:21:42;16.30;99.90
65036;DHT22;51603;49.300;8.880;2023-05-21T06:24:08;16.30;99.90
65036;DHT22;51603;49.300;8.880;2023-05-21T06:26:33;16.30;99.90
65036;DHT22;51603;49.300;8.880;2023-05-21T06:28:59;16.30;99.90
65036;DHT22;51603;49.300;8.880;2023-05-21T06:31:24;16.40;99.90
65036;DHT22;51603;49.300;8.880;2023-05-21T06:33:50;16.40;99.90
65036;DHT22;51603;49.300;8.880;2023-05-21T06:36:16;16.40;99.90
65036;DHT22;51603;49.300;8.880;2023-05-21T06:38:41;16.50;99.90
65036;DHT22;51603;49.300;8.880;2023-05-21T06:41:07;16.50;99.90
65036;DHT22;51603;49.300;8.880;2023-05-21T06:43:33;16.50;99.90
65036;DHT22;51603;49.300;8.880;2023-05-21T06:45:58;16.50;99.90
65036;DHT22;51603;49.300;8.880;2023-05-21T06:48:24;16.60;99.90
65036;DHT22;51603;49.300;8.880;2023-05-21T06:50:49;16.70;99.90
65036;DHT22;51603;49.300;8.880;2023-05-21T06:53:15;16.70;99.90
65036;DHT22;51603;49.300;8.880;2023-05-21T06:55:41;16.70;99.90
65036;DHT22;51603;49.300;8.880;2023-05-21T06:58:10;16.80;99.90
65036;DHT22;51603;49.300;8.880;2023-05-21T07:00:36;16.80;99.90
65036;DHT22;51603;49.300;8.880;2023-05-21T07:03:01;16.90;99.90
65036;DHT22;51603;49.300;8.880;2023-05-21T07:05:27;16.90;99.90
65036;DHT22;51603;49.300;8.880;2023-05-21T07:07:52;17.00;99.90
65036;DHT22;51603;49.300;8.880;2023-05-21T07:10:18;17.00;99.90
65036;DHT22;51603;49.300;8.880;2023-05-21T07:12:44;17.10;99.90
65036;DHT22;51603;49.300;8.880;2023-05-21T07:15:10;17.20;99.90
65036;DHT22;51603;49.300;8.880;2023-05-21T07:17:36;17.20;99.90
65036;DHT22;51603;49.300;8.880;2023-05-21T07:20:02;17.30;99.90
65036;DHT22;51603;49.300;8.880;2023-05-21T07:22:30;17.50;99.90
65036;DHT22;51603;49.300;8.880;2023-05-21T07:24:56;17.50;99.90
65036;DHT22;51603;49.300;8.880;2023-05-21T07:27:21;17.70;99.90
65036;DHT22;51603;49.300;8.880;2023-05-21T07:29:47;17.80;99.90
65036;DHT22;51603;49.300;8.880;2023-05-21T07:32:13;18.00;99.90
65036;DHT22;51603;49.300;8.880;2023-05-21T07:34:38;18.10;99.90
65036;DHT22;51603;49.300;8.880;2023-05-21T07:37:04;18.20;99.90
65036;DHT22;51603;49.300;8.880;2023-05-21T07:39:30;18.30;99.90
65036;DHT22;51603;49.300;8.880;2023-05-21T07:41:55;18.30;99.90
65036;DHT22;51603;49.300;8.880;2023-05-21T07:44:21;18.30;99.90
65036;DHT22;51603;49.300;8.880;2023-05-21T07:46:46;18.40;99.90
65036;DHT22;51603;49.300;8.880;2023-05-21T07:49:12;18.50;99.90
65036;DHT22;51603;49.300;8.880;2023-05-21T07:51:41;18.60;99.90
65036;DHT22;51603;49.300;8.880;2023-05-21T07:54:08;18.80;99.90
65036;DHT22;51603;49.300;8.880;2023-05-21T07:56:33;19.00;99.90
65036;DHT22;51603;49.300;8.880;2023-05-21T07:58:59;19.20;99.90
65036;DHT22;51603;49.300;8.880;2023-05-21T08:01:26;19.40;99.90
65036;DHT22;51603;49.300;8.880;2023-05-21T08:03:54;19.70;99.90
65036;DHT22;51603;49.300;8.880;2023-05-21T08:06:19;20.00;99.90
65036;DHT22;51603;49.300;8.880;2023-05-21T08:08:46;20.20;99.90
65036;DHT22;51603;49.300;8.880;2023-05-21T08:11:12;20.40;99.90
65036;DHT22;51603;49.300;8.880;2023-05-21T08:13:37;20.60;99.90
65036;DHT22;51603;49.300;8.880;2023-05-21T08:16:03;20.80;99.90
65036;DHT22;51603;49.300;8.880;2023-05-21T08:18:29;21.00;99.90
65036;DHT22;51603;49.300;8.880;2023-05-21T08:20:55;21.20;99.90
65036;DHT22;51603;49.300;8.880;2023-05-21T08:23:20;21.40;99.90
65036;DHT22;51603;49.300;8.880;2023-05-21T08:25:46;21.50;99.90
65036;DHT22;51603;49.300;8.880;2023-05-21T08:28:12;21.70;99.90
65036;DHT22;51603;49.300;8.880;2023-05-21T08:30:37;21.80;99.90
65036;DHT22;51603;49.300;8.880;2023-05-21T08:33:03;21.90;99.90
65036;DHT22;51603;49.300;8.880;2023-05-21T08:35:28;21.80;99.90
65036;DHT22;51603;49.300;8.880;2023-05-21T08:37:54;22.00;99.90
65036;DHT22;51603;49.300;8.880;2023-05-21T08:40:19;22.10;99.90
65036;DHT22;51603;49.300;8.880;2023-05-21T08:42:49;22.40;99.90
65036;DHT22;51603;49.300;8.880;2023-05-21T08:45:22;22.60;99.90
65036;DHT22;51603;49.300;8.880;2023-05-21T08:47:54;22.60;99.90
65036;DHT22;51603;49.300;8.880;2023-05-21T08:50:22;22.60;99.90
65036;DHT22;51603;49.300;8.880;2023-05-21T08:52:49;22.80;99.90
65036;DHT22;51603;49.300;8.880;2023-05-21T08:55:15;22.70;99.90
65036;DHT22;51603;49.300;8.880;2023-05-21T08:57:42;22.60;99.90
65036;DHT22;51603;49.300;8.880;2023-05-21T09:00:09;22.70;99.90
65036;DHT22;51603;49.300;8.880;2023-05-21T09:02:37;22.80;99.90
65036;DHT22;51603;49.300;8.880;2023-05-21T09:05:05;22.90;99.90
65036;DHT22;51603;49.300;8.880;2023-05-21T09:07:38;23.00;99.90
65036;DHT22;51603;49.300;8.880;2023-05-21T09:10:11;23.10;99.90
65036;DHT22;51603;49.300;8.880;2023-05-21T09:12:37;23.10;99.90
65036;DHT22;51603;49.300;8.880;2023-05-21T09:15:03;23.30;99.90
65036;DHT22;51603;49.300;8.880;2023-05-21T09:17:29;23.30;99.10
65036;DHT22;51603;49.300;8.880;2023-05-21T09:20:09;23.20;99.90
65036;DHT22;51603;49.300;8.880;2023-05-21T09:22:48;23.20;99.70
65036;DHT22;51603;49.300;8.880;2023-05-21T09:25:25;23.40;99.90
65036;DHT22;51603;49.300;8.880;2023-05-21T09:27:57;23.40;99.90
65036;DHT22;51603;49.300;8.880;2023-05-21T09:30:23;23.40;99.90
65036;DHT22;51603;49.300;8.880;2023-05-21T09:33:01;23.40;99.90
65036;DHT22;51603;49.300;8.880;2023-05-21T09:35:27;23.30;99.10
65036;DHT22;51603;49.300;8.880;2023-05-21T09:37:53;23.40;99.90
65036;DHT22;51603;49.300;8.880;2023-05-21T09:40:21;23.50;99.90
65036;DHT22;51603;49.300;8.880;2023-05-21T09:42:48;23.70;99.90
65036;DHT22;51603;49.300;8.880;2023-05-21T09:45:18;23.70;99.90
65036;DHT22;51603;49.300;8.880;2023-05-21T09:47:45;23.60;99.00
65036;DHT22;51603;49.300;8.880;2023-05-21T09:50:19;23.70;99.90
65036;DHT22;51603;49.300;8.880;2023-05-21T09:52:45;23.80;99.90
65036;DHT22;51603;49.300;8.880;2023-05-21T09:55:12;23.80;99.90
65036;DHT22;51603;49.300;8.880;2023-05-21T09:57:42;23.60;98.90
65036;DHT22;51603;49.300;8.880;2023-05-21T10:00:09;23.60;99.90
65036;DHT22;51603;49.300;8.880;2023-05-21T10:02:43;23.60;99.90
65036;DHT22;51603;49.300;8.880;2023-05-21T10:05:11;23.80;99.90
65036;DHT22;51603;49.300;8.880;2023-05-21T10:07:43;23.80;99.90
65036;DHT22;51603;49.300;8.880;2023-05-21T10:10:13;23.90;99.90
65036;DHT22;51603;49.300;8.880;2023-05-21T10:12:42;24.00;99.40
65036;DHT22;51603;49.300;8.880;2023-05-21T10:15:15;24.20;98.90
65036;DHT22;51603;49.300;8.880;2023-05-21T10:17:42;24.40;99.10
65036;DHT22;51603;49.300;8.880;2023-05-21T10:20:09;24.50;99.10
65036;DHT22;51603;49.300;8.880;2023-05-21T10:22:36;24.70;99.00
65036;DHT22;51603;49.300;8.880;2023-05-21T10:25:02;24.80;97.20
65036;DHT22;51603;49.300;8.880;2023-05-21T10:27:30;24.90;98.70
65036;DHT22;51603;49.300;8.880;2023-05-21T10:29:58;25.10;97.30
65036;DHT22;51603;49.300;8.880;2023-05-21T10:32:25;25.50;99.00
65036;DHT22;51603;49.300;8.880;2023-05-21T10:34:52;25.40;98.60
65036;DHT22;51603;49.300;8.880;2023-05-21T10:39:46;25.60;95.10
65036;DHT22;51603;49.300;8.880;2023-05-21T10:45:12;25.90;97.80
65036;DHT22;51603;49.300;8.880;2023-05-21T10:48:18;25.80;93.90
65036;DHT22;51603;49.300;8.880;2023-05-21T10:51:03;26.00;97.00
65036;DHT22;51603;49.300;8.880;2023-05-21T10:53:43;26.00;94.20
65036;DHT22;51603;49.300;8.880;2023-05-21T10:56:28;26.10;93.40
65036;DHT22;51603;49.300;8.880;2023-05-21T10:59:24;26.00;92.30
65036;DHT22;51603;49.300;8.880;2023-05-21T11:01:54;26.10;91.30
65036;DHT22;51603;49.300;8.880;2023-05-21T11:04:28;26.00;93.60
65036;DHT22;51603;49.300;8.880;2023-05-21T11:06:53;26.00;93.50
65036;DHT22;51603;49.300;8.880;2023-05-21T11:09:20;26.00;93.50
65036;DHT22;51603;49.300;8.880;2023-05-21T11:11:52;26.00;92.40
65036;DHT22;51603;49.300;8.880;2023-05-21T11:14:36;26.00;91.30
65036;DHT22;51603;49.300;8.880;2023-05-21T11:22:07;26.00;92.00
65036;DHT22;51603;49.300;8.880;2023-05-21T11:24:36;26.00;92.70
65036;DHT22;51603;49.300;8.880;2023-05-21T11:27:02;25.90;86.20
65036;DHT22;51603;49.300;8.880;2023-05-21T11:29:38;25.90;88.20
65036;DHT22;51603;49.300;8.880;2023-05-21T11:32:05;25.80;82.60
65036;DHT22;51603;49.300;8.880;2023-05-21T11:34:41;25.80;83.30
65036;DHT22;51603;49.300;8.880;2023-05-21T11:39:52;25.80;89.80
65036;DHT22;51603;49.300;8.880;2023-05-21T11:44:56;26.00;81.70
65036;DHT22;51603;49.300;8.880;2023-05-21T11:47:23;26.10;77.50
65036;DHT22;51603;49.300;8.880;2023-05-21T11:49:50;26.30;81.30
65036;DHT22;51603;49.300;8.880;2023-05-21T11:52:16;26.40;80.80
65036;DHT22;51603;49.300;8.880;2023-05-21T11:57:17;27.00;86.80
65036;DHT22;51603;49.300;8.880;2023-05-21T11:59:47;27.20;77.90
65036;DHT22;51603;49.300;8.880;2023-05-21T12:02:15;27.20;76.20
65036;DHT22;51603;49.300;8.880;2023-05-21T12:04:41;27.50;84.80
65036;DHT22;51603;49.300;8.880;2023-05-21T12:07:09;27.50;71.80
65036;DHT22;51603;49.300;8.880;2023-05-21T12:09:39;27.60;79.90
65036;DHT22;51603;49.300;8.880;2023-05-21T12:12:07;27.50;73.40
65036;DHT22;51603;49.300;8.880;2023-05-21T12:14:33;27.30;78.10
65036;DHT22;51603;49.300;8.880;2023-05-21T12:16:59;27.30;81.20
65036;DHT22;51603;49.300;8.880;2023-05-21T12:19:25;27.10;79.00
65036;DHT22;51603;49.300;8.880;2023-05-21T12:21:50;27.00;77.10
65036;DHT22;51603;49.300;8.880;2023-05-21T12:24:16;26.90;77.30
65036;DHT22;51603;49.300;8.880;2023-05-21T12:26:42;26.90;72.40
65036;DHT22;51603;49.300;8.880;2023-05-21T12:29:10;26.80;78.50
65036;DHT22;51603;49.300;8.880;2023-05-21T12:31:47;26.80;76.40
65036;DHT22;51603;49.300;8.880;2023-05-21T12:34:13;26.80;76.30
65036;DHT22;51603;49.300;8.880;2023-05-21T12:36:41;26.70;77.90
65036;DHT22;51603;49.300;8.880;2023-05-21T12:39:10;26.60;85.50
65036;DHT22;51603;49.300;8.880;2023-05-21T12:41:36;26.50;80.10
65036;DHT22;51603;49.300;8.880;2023-05-21T12:44:02;26.50;83.60
65036;DHT22;51603;49.300;8.880;2023-05-21T12:46:29;26.50;86.90
65036;DHT22;51603;49.300;8.880;2023-05-21T12:48:55;26.60;82.90
65036;DHT22;51603;49.300;8.880;2023-05-21T12:51:21;26.40;85.80
65036;DHT22;51603;49.300;8.880;2023-05-21T12:53:46;26.40;83.70
65036;DHT22;51603;49.300;8.880;2023-05-21T12:56:13;26.30;84.80
65036;DHT22;51603;49.300;8.880;2023-05-21T12:58:40;26.30;82.30
65036;DHT22;51603;49.300;8.880;2023-05-21T13:01:07;26.20;86.80
65036;DHT22;51603;49.300;8.880;2023-05-21T13:03:33;26.30;88.10
65036;DHT22;51603;49.300;8.880;2023-05-21T13:05:59;26.20;83.30
65036;DHT22;51603;49.300;8.880;2023-05-21T13:08:25;26.20;87.00
65036;DHT22;51603;49.300;8.880;2023-05-21T13:10:51;26.20;81.60
65036;DHT22;51603;49.300;8.880;2023-05-21T13:13:17;26.20;79.40
65036;DHT22;51603;49.300;8.880;2023-05-21T13:15:42;26.30;78.70
65036;DHT22;51603;49.300;8.880;2023-05-21T13:18:08;26.30;83.50
65036;DHT22;51603;49.300;8.880;2023-05-21T13:20:34;26.40;81.30
65036;DHT22;51603;49.300;8.880;2023-05-21T13:23:00;26.60;86.40
65036;DHT22;51603;49.300;8.880;2023-05-21T13:25:26;26.60;82.40
65036;DHT22;51603;49.300;8.880;2023-05-21T13:27:53;26.70;82.20
65036;DHT22;51603;49.300;8.880;2023-05-21T13:30:19;26.90;80.60
65036;DHT22;51603;49.300;8.880;2023-05-21T13:32:46;26.80;77.00
65036;DHT22;51603;49.300;8.880;2023-05-21T13:35:12;26.90;83.10
65036;DHT22;51603;49.300;8.880;2023-05-21T13:37:38;26.80;74.50
65036;DHT22;51603;49.300;8.880;2023-05-21T13:40:09;27.00;78.40
65036;DHT22;51603;49.300;8.880;2023-05-21T13:42:35;27.20;82.10
65036;DHT22;51603;49.300;8.880;2023-05-21T13:45:03;27.40;75.90
65036;DHT22;51603;49.300;8.880;2023-05-21T13:47:29;27.40;73.90
65036;DHT22;51603;49.300;8.880;2023-05-21T13:49:54;27.60;76.10
65036;DHT22;51603;49.300;8.880;2023-05-21T13:52:20;27.70;77.50
65036;DHT22;51603;49.300;8.880;2023-05-21T13:54:46;27.80;71.60
65036;DHT22;51603;49.300;8.880;2023-05-21T13:57:11;27.60;66.70
65036;DHT22;51603;49.300;8.880;2023-05-21T13:59:37;27.40;68.90
65036;DHT22;51603;49.300;8.880;2023-05-21T14:02:05;27.30;79.60
65036;DHT22;51603;49.300;8.880;2023-05-21T14:04:31;27.50;73.90
65036;DHT22;51603;49.300;8.880;2023-05-21T14:06:56;27.60;80.00
65036;DHT22;51603;49.300;8.880;2023-05-21T14:09:22;27.70;71.80
65036;DHT22;51603;49.300;8.880;2023-05-21T14:11:51;27.90;74.90
65036;DHT22;51603;49.300;8.880;2023-05-21T14:14:17;27.90;66.20
65036;DHT22;51603;49.300;8.880;2023-05-21T14:16:46;27.80;61.30
65036;DHT22;51603;49.300;8.880;2023-05-21T14:19:11;27.90;65.70
65036;DHT22;51603;49.300;8.880;2023-05-21T14:21:37;27.80;63.40
65036;DHT22;51603;49.300;8.880;2023-05-21T14:24:07;27.90;64.80
65036;DHT22;51603;49.300;8.880;2023-05-21T14:26:32;27.90;63.20
65036;DHT22;51603;49.300;8.880;2023-05-21T14:28:58;28.00;66.30
65036;DHT22;51603;49.300;8.880;2023-05-21T14:31:24;28.00;63.70
65036;DHT22;51603;49.300;8.880;2023-05-21T14:33:50;28.00;65.80
65036;DHT22;51603;49.300;8.880;2023-05-21T14:36:16;27.80;62.50
65036;DHT22;51603;49.300;8.880;2023-05-21T14:38:42;27.80;69.00
65036;DHT22;51603;49.300;8.880;2023-05-21T14:41:07;27.70;66.00
65036;DHT22;51603;49.300;8.880;2023-05-21T14:43:34;27.60;65.90
65036;DHT22;51603;49.300;8.880;2023-05-21T14:46:00;27.40;65.60
65036;DHT22;51603;49.300;8.880;2023-05-21T14:48:26;27.30;68.00
65036;DHT22;51603;49.300;8.880;2023-05-21T14:50:51;27.20;69.70
65036;DHT22;51603;49.300;8.880;2023-05-21T14:53:18;27.00;66.90
65036;DHT22;51603;49.300;8.880;2023-05-21T14:55:44;27.00;71.90
65036;DHT22;51603;49.300;8.880;2023-05-21T14:58:10;27.00;68.80
65036;DHT22;51603;49.300;8.880;2023-05-21T15:00:37;26.90;71.80
65036;DHT22;51603;49.300;8.880;2023-05-21T15:03:03;26.90;74.10
65036;DHT22;51603;49.300;8.880;2023-05-21T15:05:29;26.80;77.20
65036;DHT22;51603;49.300;8.880;2023-05-21T15:07:56;26.80;75.90
65036;DHT22;51603;49.300;8.880;2023-05-21T15:10:25;26.80;76.80
65036;DHT22;51603;49.300;8.880;2023-05-21T15:12:52;26.80;76.10
65036;DHT22;51603;49.300;8.880;2023-05-21T15:15:17;26.80;77.60
65036;DHT22;51603;49.300;8.880;2023-05-21T15:17:46;26.70;76.30
65036;DHT22;51603;49.300;8.880;2023-05-21T15:20:11;26.70;78.90
65036;DHT22;51603;49.300;8.880;2023-05-21T15:22:37;26.70;75.70
65036;DHT22;51603;49.300;8.880;2023-05-21T15:25:03;26.70;72.00
65036;DHT22;51603;49.300;8.880;2023-05-21T15:27:29;26.60;76.50
65036;DHT22;51603;49.300;8.880;2023-05-21T15:29:54;26.50;75.90
65036;DHT22;51603;49.300;8.880;2023-05-21T15:32:20;26.50;78.00
65036;DHT22;51603;49.300;8.880;2023-05-21T15:34:46;26.50;76.30
65036;DHT22;51603;49.300;8.880;2023-05-21T15:37:12;26.50;77.30
65036;DHT22;51603;49.300;8.880;2023-05-21T15:39:45;26.40;80.60
65036;DHT22;51603;49.300;8.880;2023-05-21T15:42:11;26.40;80.70
65036;DHT22;51603;49.300;8.880;2023-05-21T15:44:37;26.30;80.00
65036;DHT22;51603;49.300;8.880;2023-05-21T15:47:03;26.20;76.80